Time;durP1;ratioP1;P1;durP2;ratioP2;P2;SDS_P1;SDS_P2;PMS_P1;PMS_P2;Temp;Humidity;BMP_temperature;BMP_pressure;BME280_temperature;BME280_humidity;BME280_pressure;Samples;Min_cycle;Max_cycle;Signal;HPM_P1;HPM_P2
2022/05/21 00:00:41;;;;;;;6.05;3.20;;;;;;;16.61;69.14;100884.84;4990373;28;20058;-75
2022/05/21 00:03:09;;;;;;;5.70;3.00;;;;;;;16.71;68.68;100871.16;4991748;28;20030;-75
2022/05/21 00:05:35;;;;;;;6.50;3.10;;;;;;;16.76;68.37;100860.78;5009024;28;20028;-74
2022/05/21 00:08:04;;;;;;;6.40;3.25;;;;;;;16.91;67.25;100871.53;5011300;28;20036;-74
2022/05/21 00:10:30;;;;;;;4.85;3.28;;;;;;;16.84;66.54;100869.63;5011099;28;20396;-76
2022/05/21 00:12:56;;;;;;;3.97;2.92;;;;;;;16.68;67.94;100859.78;5011333;28;20029;-74
2022/05/21 00:15:24;;;;;;;5.18;3.25;;;;;;;16.72;68.02;100869.41;5010991;28;20022;-75
2022/05/21 00:17:50;;;;;;;6.07;3.15;;;;;;;16.46;69.77;100851.53;5011376;28;20039;-74
2022/05/21 00:23:24;;;;;;;5.80;3.15;;;;;;;16.08;71.91;100849.09;5010841;28;20121;-74
2022/05/21 00:25:54;;;;;;;;;;;;;;;15.20;75.71;100868.78;5011015;28;20254;-73
2022/05/21 00:28:19;;;;;;;3.38;2.80;;;;;;;14.67;77.81;100848.41;5011002;28;19967;-75
2022/05/21 00:30:45;;;;;;;6.55;2.92;;;;;;;14.74;77.96;100868.47;5010813;28;20022;-74
2022/05/21 00:33:11;;;;;;;4.53;3.10;;;;;;;14.69;78.15;100863.19;5010533;28;20036;-73
2022/05/21 00:35:37;;;;;;;4.28;2.95;;;;;;;14.40;79.19;100859.75;5010584;28;20014;-74
2022/05/21 00:38:02;;;;;;;5.25;2.95;;;;;;;14.43;78.87;100867.66;5010418;28;20026;-75
2022/05/21 00:40:28;;;;;;;8.35;3.00;;;;;;;14.20;79.23;100851.41;5009867;28;20034;-72
2022/05/21 00:42:54;;;;;;;4.85;2.70;;;;;;;14.12;79.24;100848.59;5010416;28;20022;-74
2022/05/21 00:45:20;;;;;;;4.38;3.15;;;;;;;14.01;79.94;100842.22;5010931;28;20392;-74
2022/05/21 00:47:45;;;;;;;4.13;3.13;;;;;;;14.01;80.03;100835.31;5011092;28;20533;-75
2022/05/21 00:50:15;;;;;;;7.20;2.80;;;;;;;14.12;80.35;100858.09;5011679;28;20033;-74
2022/05/21 00:52:41;;;;;;;5.03;3.40;;;;;;;13.91;81.23;100865.31;5030571;28;20045;-75
2022/05/21 00:55:32;;;;;;;5.15;2.80;;;;;;;13.98;80.95;100871.56;5008068;28;20084;-76
2022/05/21 01:00:45;;;;;;;5.35;2.75;;;;;;;13.85;81.08;100866.84;5010121;28;20080;-73
2022/05/21 01:03:13;;;;;;;3.67;3.08;;;;;;;13.62;82.03;100848.88;5010055;28;20085;-76
2022/05/21 01:05:39;;;;;;;5.00;3.00;;;;;;;13.63;81.85;100848.03;5010477;28;20140;-76
2022/05/21 01:08:05;;;;;;;6.38;3.03;;;;;;;13.69;82.24;100860.31;5010094;28;20480;-72
2022/05/21 01:10:36;;;;;;;5.93;3.10;;;;;;;13.48;82.17;100825.09;5010208;28;20021;-76
2022/05/21 01:13:06;;;;;;;4.10;2.95;;;;;;;13.54;82.74;100850.34;5009974;28;20013;-74
2022/05/21 01:15:40;;;;;;;4.60;2.60;;;;;;;13.29;84.09;100875.47;4991373;28;20024;-74
2022/05/21 01:18:07;;;;;;;4.68;3.25;;;;;;;13.26;84.71;100873.66;5012491;28;20025;-74
2022/05/21 01:20:39;;;;;;;5.95;2.97;;;;;;;13.17;84.78;100869.88;5010097;28;20022;-74
2022/05/21 01:23:05;;;;;;;7.60;3.38;;;;;;;13.05;84.66;100871.25;5010097;28;20452;-74
2022/05/21 01:25:34;;;;;;;4.50;2.60;;;;;;;12.79;85.94;100862.59;5010099;28;20089;-74
2022/05/21 01:28:01;;;;;;;5.55;2.80;;;;;;;12.91;85.18;100856.94;5009472;28;20026;-74
2022/05/21 01:30:35;;;;;;;4.95;2.67;;;;;;;12.83;84.58;100809.16;5009604;28;20388;-77
2022/05/21 01:33:14;;;;;;;4.95;2.97;;;;;;;13.25;83.72;100855.47;5009879;28;20018;-74
2022/05/21 01:35:42;;;;;;;5.50;2.97;;;;;;;13.27;83.25;100859.88;5010212;28;20018;-75
2022/05/21 01:38:08;;;;;;;3.35;2.70;;;;;;;13.37;82.62;100858.50;5009641;28;20487;-73
2022/05/21 01:40:34;;;;;;;3.85;2.53;;;;;;;13.37;82.20;100845.53;4991715;28;20464;-72
2022/05/21 01:45:44;;;;;;;4.93;2.75;;;;;;;13.29;81.82;100827.94;5009854;28;20056;-74
2022/05/21 01:48:10;;;;;;;5.55;2.70;;;;;;;13.40;81.60;100855.97;5008122;28;20020;-74
2022/05/21 01:50:37;;;;;;;4.60;2.70;;;;;;;13.26;81.73;100829.59;5009391;28;20460;-73
2022/05/21 01:53:03;;;;;;;4.40;3.00;;;;;;;13.43;81.71;100858.69;5009741;28;20014;-71
2022/05/21 01:55:28;;;;;;;5.68;3.05;;;;;;;13.17;81.92;100831.00;5009619;28;20156;-73
2022/05/21 01:57:54;;;;;;;4.40;2.97;;;;;;;12.95;82.62;100810.44;5009695;28;20022;-76
2022/05/21 02:00:20;;;;;;;5.50;2.60;;;;;;;12.95;83.08;100840.69;5009525;28;20179;-74
2022/05/21 02:02:45;;;;;;;3.70;2.90;;;;;;;13.00;82.96;100846.88;5009694;28;20022;-77
2022/05/21 02:05:11;;;;;;;5.25;2.75;;;;;;;13.11;82.84;100845.53;5009770;28;20444;-74
2022/05/21 02:07:36;;;;;;;5.53;2.78;;;;;;;13.00;82.84;100825.28;5010985;28;20022;-73
2022/05/21 02:10:03;;;;;;;3.88;2.58;;;;;;;13.16;82.02;100830.13;5029111;28;20033;-73
2022/05/21 02:12:28;;;;;;;6.30;3.00;;;;;;;13.15;81.31;100824.91;5028987;28;20028;-73
2022/05/21 02:14:57;;;;;;;5.85;2.63;;;;;;;13.34;81.37;100839.31;5029217;28;20022;-72
2022/05/21 02:17:23;;;;;;;7.30;2.85;;;;;;;13.29;80.72;100833.97;5003764;28;20036;-73
2022/05/21 02:19:49;;;;;;;4.18;2.95;;;;;;;13.36;81.07;100845.44;5030005;28;20025;-74
2022/05/21 02:22:16;;;;;;;5.43;2.70;;;;;;;13.36;81.28;100835.94;5029634;28;20040;-74
2022/05/21 02:24:41;;;;;;;7.57;2.85;;;;;;;13.47;79.95;100825.03;5031962;28;20029;-74
2022/05/21 02:27:11;;;;;;;5.57;3.10;;;;;;;13.68;79.64;100830.91;5033731;28;20083;-73
2022/05/21 02:29:38;;;;;;;5.43;2.97;;;;;;;13.68;79.45;100817.03;5032667;28;20025;-74
2022/05/21 02:32:04;;;;;;;5.28;3.00;;;;;;;13.38;79.11;100790.22;5032924;28;20022;-70
2022/05/21 02:34:30;;;;;;;6.32;3.15;;;;;;;13.40;80.35;100835.22;5029610;28;20022;-73
2022/05/21 02:39:40;;;;;;;5.43;2.88;;;;;;;13.51;78.61;100814.81;5032224;28;20067;-73
2022/05/21 02:42:43;;;;;;;6.13;2.55;;;;;;;13.72;76.78;100827.56;4998931;28;20054;-74
2022/05/21 02:44:51;;;;;;;6.43;3.03;;;;;;;13.63;76.14;100803.91;5031986;28;20029;-74
2022/05/21 02:47:17;;;;;;;8.35;2.72;;;;;;;13.72;75.91;100822.38;5031414;28;20030;-73
2022/05/21 02:49:42;;;;;;;4.32;2.67;;;;;;;13.66;75.72;100829.97;5032509;28;20024;-75
2022/05/21 02:52:07;;;;;;;4.60;2.78;;;;;;;13.61;75.69;100822.88;5033050;28;20104;-73
2022/05/21 02:54:33;;;;;;;6.03;2.80;;;;;;;13.36;76.21;100786.66;5033092;28;20037;-76
2022/05/21 02:56:58;;;;;;;7.13;2.90;;;;;;;13.56;76.21;100820.16;5032897;28;20052;-75
2022/05/21 02:59:24;;;;;;;5.18;2.70;;;;;;;13.40;75.89;100796.31;5032777;28;20690;-76
2022/05/21 03:01:49;;;;;;;5.72;2.90;;;;;;;13.42;76.13;100818.00;5032586;28;20044;-75
2022/05/21 03:04:15;;;;;;;5.78;2.40;;;;;;;13.36;76.00;100825.56;5032750;28;20037;-75
2022/05/21 03:06:40;;;;;;;6.43;3.20;;;;;;;13.35;75.72;100828.13;5033112;28;20098;-75
2022/05/21 03:11:50;;;;;;;4.65;2.80;;;;;;;13.01;77.02;100791.63;5032694;28;20506;-75
2022/05/21 03:14:15;;;;;;;5.47;3.10;;;;;;;13.21;77.61;100819.91;5032628;28;20112;-75
2022/05/21 03:16:41;;;;;;;4.25;2.80;;;;;;;13.15;78.04;100811.94;5032837;28;20026;-76
2022/05/21 03:19:06;;;;;;;5.78;3.15;;;;;;;12.51;78.56;100724.38;5032788;28;20021;-75
2022/05/21 03:21:32;;;;;;;7.47;3.00;;;;;;;12.61;80.99;100814.50;5032706;28;20025;-76
2022/05/21 03:23:58;;;;;;;8.98;3.03;;;;;;;12.61;81.67;100823.97;5032456;28;20468;-75
2022/05/21 03:26:24;;;;;;;6.18;3.35;;;;;;;12.58;81.77;100803.16;5032680;28;20025;-75
2022/05/21 03:28:50;;;;;;;6.05;3.15;;;;;;;12.88;81.61;100824.03;5032496;28;20030;-75
2022/05/21 03:31:15;;;;;;;7.93;3.30;;;;;;;12.94;80.84;100816.44;5032718;28;20450;-75
2022/05/21 03:33:41;;;;;;;6.18;3.00;;;;;;;13.13;80.84;100813.59;5032757;28;20036;-75
2022/05/21 03:36:08;;;;;;;6.47;3.05;;;;;;;13.14;80.57;100811.03;5032276;28;20033;-74
2022/05/21 03:38:34;;;;;;;5.85;3.33;;;;;;;13.37;80.02;100827.38;5014563;28;20022;-74
2022/05/21 03:40:59;;;;;;;4.78;3.05;;;;;;;13.43;79.96;100824.97;5030216;28;20455;-74
2022/05/21 03:43:25;;;;;;;7.18;3.50;;;;;;;13.46;79.94;100819.00;5031509;28;20029;-75
2022/05/21 03:45:51;;;;;;;9.93;3.40;;;;;;;13.52;79.70;100826.06;5031097;28;20029;-75
2022/05/21 03:48:17;;;;;;;9.05;3.33;;;;;;;13.26;80.15;100818.34;5031488;28;20452;-74
2022/05/21 03:50:44;;;;;;;7.32;3.58;;;;;;;12.71;81.33;100830.34;5031254;28;20046;-74
2022/05/21 03:53:10;;;;;;;8.10;3.25;;;;;;;12.24;82.82;100778.69;5031106;28;20057;-72
2022/05/21 03:55:37;;;;;;;7.75;3.45;;;;;;;12.21;83.94;100809.63;5031329;28;20026;-74
2022/05/21 03:58:03;;;;;;;6.15;3.20;;;;;;;11.99;84.94;100798.53;4996044;28;20140;-74
2022/05/21 04:00:29;;;;;;;8.27;3.83;;;;;;;12.02;85.78;100811.56;5031434;28;20593;-74
2022/05/21 04:02:55;;;;;;;6.32;4.00;;;;;;;12.11;86.79;100844.66;5031811;28;20109;-74
2022/05/21 04:05:21;;;;;;;8.52;4.05;;;;;;;12.16;86.81;100839.66;5032169;28;20026;-73
2022/05/21 04:07:46;;;;;;;7.15;4.43;;;;;;;12.20;86.62;100834.66;5032161;28;20443;-73
2022/05/21 04:10:15;;;;;;;6.18;4.35;;;;;;;12.03;87.20;100794.34;5032096;28;20025;-74
2022/05/21 04:12:41;;;;;;;8.75;4.75;;;;;;;12.24;86.97;100822.72;5031705;28;20075;-74
2022/05/21 04:15:08;;;;;;;8.27;4.50;;;;;;;12.50;87.00;100833.97;5030917;28;20034;-73
2022/05/21 04:17:34;;;;;;;8.75;4.82;;;;;;;12.62;86.74;100836.09;5031482;28;20118;-74
2022/05/21 04:20:00;;;;;;;9.43;4.95;;;;;;;12.62;86.39;100826.63;5031576;28;20041;-74
2022/05/21 04:22:25;;;;;;;6.75;4.90;;;;;;;12.46;86.39;100788.06;5013462;28;20033;-75
2022/05/21 04:24:51;;;;;;;8.35;4.70;;;;;;;12.60;87.05;100815.34;5031302;28;20030;-75
2022/05/21 04:27:16;;;;;;;7.60;4.85;;;;;;;12.29;87.52;100796.13;5036107;28;20028;-75
2022/05/21 04:29:42;;;;;;;10.27;5.35;;;;;;;12.57;87.99;100820.41;5012609;28;20037;-76
2022/05/21 04:32:08;;;;;;;8.38;5.15;;;;;;;12.41;87.36;100779.25;5031254;28;20025;-76
2022/05/21 04:34:33;;;;;;;15.20;5.72;;;;;;;12.77;87.27;100800.38;5031191;28;20056;-76
2022/05/21 04:36:58;;;;;;;9.07;5.30;;;;;;;13.04;88.70;100804.69;5013557;28;20118;-76
2022/05/21 04:39:24;;;;;;;11.90;5.43;;;;;;;13.35;88.48;100816.03;5030999;28;20060;-77
2022/05/21 04:41:49;;;;;;;9.02;5.15;;;;;;;12.95;87.69;100729.25;5031238;28;20095;-77
2022/05/21 04:44:15;;;;;;;9.77;6.18;;;;;;;13.73;84.20;100824.13;5031586;28;20056;-77
2022/05/21 04:46:40;;;;;;;8.57;5.82;;;;;;;13.85;84.83;100827.94;5030376;28;20038;-77
2022/05/21 04:49:06;;;;;;;12.45;6.30;;;;;;;13.90;85.02;100824.59;5029907;28;20041;-79
2022/05/21 04:51:35;;;;;;;8.95;5.93;;;;;;;14.04;85.36;100821.53;5031192;28;20057;-76
2022/05/21 04:54:00;;;;;;;9.02;5.20;;;;;;;14.13;84.19;100813.13;5031046;28;20025;-76
2022/05/21 04:56:26;;;;;;;8.88;4.97;;;;;;;14.06;83.47;100807.75;5030926;28;20360;-75
2022/05/21 04:58:52;;;;;;;8.45;5.45;;;;;;;14.20;82.77;100820.25;5030939;28;20029;-78
2022/05/21 05:01:17;;;;;;;7.82;5.22;;;;;;;14.23;82.71;100817.72;5030697;28;20017;-75
2022/05/21 05:03:43;;;;;;;12.20;5.47;;;;;;;14.26;83.67;100815.22;5030614;28;20029;-76
2022/05/21 05:06:08;;;;;;;6.30;5.10;;;;;;;14.30;83.98;100803.22;5030642;28;20029;-76
2022/05/21 05:08:34;;;;;;;6.63;5.40;;;;;;;14.43;83.51;100804.41;5013061;28;20398;-76
2022/05/21 05:11:00;;;;;;;8.48;5.60;;;;;;;14.40;81.36;100764.56;5030698;28;20022;-76
2022/05/21 05:13:25;;;;;;;8.82;5.10;;;;;;;14.65;81.66;100798.97;5030507;28;20032;-75
2022/05/21 05:15:50;;;;;;;7.10;5.07;;;;;;;14.70;80.46;100796.50;4995454;28;20033;-76
2022/05/21 05:18:23;;;;;;;9.30;5.93;;;;;;;14.61;79.53;100780.66;5029455;28;20025;-76
2022/05/21 05:20:49;;;;;;;11.05;6.10;;;;;;;14.89;80.34;100821.22;5030343;28;20025;-75
2022/05/21 05:23:15;;;;;;;11.38;5.90;;;;;;;14.91;81.14;100819.53;5030612;28;20051;-75
2022/05/21 05:25:41;;;;;;;8.02;5.65;;;;;;;14.82;77.90;100807.19;5030157;28;20100;-75
2022/05/21 05:28:19;;;;;;;9.43;6.28;;;;;;;14.88;80.59;100801.28;5030523;28;20025;-74
2022/05/21 05:30:48;;;;;;;7.65;5.78;;;;;;;15.00;80.30;100796.38;5030084;28;20028;-76
2022/05/21 05:33:16;;;;;;;9.88;5.18;;;;;;;15.17;78.29;100809.75;5030127;28;20396;-75
2022/05/21 05:35:42;;;;;;;9.20;5.35;;;;;;;15.09;78.42;100764.50;5013000;28;20033;-75
2022/05/21 05:38:10;;;;;;;7.32;5.20;;;;;;;15.15;77.52;100771.56;4994809;28;20033;-74
2022/05/21 05:40:36;;;;;;;7.63;5.88;;;;;;;15.08;77.52;100748.84;5030116;28;20546;-75
2022/05/21 05:43:03;;;;;;;8.82;6.45;;;;;;;15.50;79.02;100813.09;5030310;28;20079;-75
2022/05/21 05:45:29;;;;;;;8.50;5.63;;;;;;;15.69;78.15;100810.06;5029888;28;20026;-75
2022/05/21 05:47:55;;;;;;;8.93;5.55;;;;;;;15.83;77.86;100822.53;5030234;28;20033;-74
2022/05/21 05:50:21;;;;;;;9.90;6.03;;;;;;;15.89;77.13;100791.41;5030162;28;20037;-75
2022/05/21 05:52:46;;;;;;;7.95;5.72;;;;;;;16.05;76.57;100800.41;5029618;28;20029;-74
2022/05/21 05:55:12;;;;;;;8.48;5.13;;;;;;;16.16;75.10;100800.59;5030482;28;20360;-75
2022/05/21 05:57:39;;;;;;;11.80;5.47;;;;;;;16.26;74.73;100802.56;5030272;28;20083;-75
2022/05/21 06:00:07;;;;;;;8.32;5.22;;;;;;;16.40;73.55;100791.50;5015252;28;20029;-75
2022/05/21 06:05:19;;;;;;;8.10;4.30;;;;;;;16.61;70.18;100786.69;5033599;28;20044;-74
2022/05/21 06:07:50;;;;;;;6.20;4.23;;;;;;;16.69;70.55;100791.16;5034047;28;20029;-75
2022/05/21 06:10:28;;;;;;;6.28;4.57;;;;;;;16.78;69.21;100786.09;5033781;28;20083;-74
2022/05/21 06:12:54;;;;;;;10.90;4.78;;;;;;;16.77;70.52;100797.34;5034114;28;20061;-74
2022/05/21 06:15:19;;;;;;;7.15;4.68;;;;;;;16.85;71.94;100785.34;5034147;28;20076;-72
2022/05/21 06:17:45;;;;;;;6.47;4.93;;;;;;;16.98;70.76;100795.16;5033865;28;20022;-75
2022/05/21 06:20:14;;;;;;;8.43;5.47;;;;;;;17.06;72.63;100795.25;5033563;28;20047;-75
2022/05/21 06:22:47;;;;;;;7.57;5.13;;;;;;;17.12;72.93;100781.41;5033850;28;20029;-74
2022/05/21 06:25:18;;;;;;;7.90;5.50;;;;;;;17.34;74.01;100798.28;5033892;28;20026;-75
2022/05/21 06:27:48;;;;;;;10.73;5.28;;;;;;;17.41;71.46;100797.50;5032319;28;20025;-76
2022/05/21 06:30:15;;;;;;;8.75;5.38;;;;;;;17.48;71.76;100789.78;5033312;28;20024;-74
2022/05/21 06:32:40;;;;;;;8.10;4.95;;;;;;;17.59;72.38;100793.41;5033701;28;20025;-74
2022/05/21 06:35:07;;;;;;;7.85;4.93;;;;;;;17.70;72.33;100775.28;5033664;28;20033;-74
2022/05/21 06:37:33;;;;;;;8.45;5.00;;;;;;;17.88;71.23;100791.16;5033511;28;20025;-74
2022/05/21 06:39:59;;;;;;;7.97;4.55;;;;;;;17.94;69.46;100773.00;5033367;28;20036;-74
2022/05/21 06:42:24;;;;;;;7.45;3.90;;;;;;;18.04;69.68;100775.69;5014175;28;20020;-75
2022/05/21 06:44:53;;;;;;;6.35;3.95;;;;;;;18.00;70.66;100789.59;5031540;28;20033;-74
2022/05/21 06:47:21;;;;;;;6.10;3.30;;;;;;;18.04;64.79;100788.75;5033258;28;20411;-74
2022/05/21 06:49:47;;;;;;;5.47;3.10;;;;;;;18.22;61.58;100786.34;4981482;28;20033;-75
2022/05/21 06:52:12;;;;;;;5.95;3.92;;;;;;;18.24;61.98;100761.13;5033110;28;20514;-76
2022/05/21 06:54:38;;;;;;;7.38;3.72;;;;;;;18.27;62.24;100763.75;5033330;28;20049;-76
2022/05/21 06:57:08;;;;;;;5.07;3.42;;;;;;;18.14;61.67;100771.44;5033043;28;20033;-77
2022/05/21 06:59:34;;;;;;;8.40;3.92;;;;;;;18.18;60.78;100734.91;5032542;28;20040;-76
2022/05/21 07:02:00;;;;;;;5.97;3.15;;;;;;;18.46;62.65;100763.06;5033019;28;20018;-76
2022/05/21 07:09:57;;;;;;;4.80;3.40;;;;;;;18.42;64.59;100746.47;5030853;28;20044;-75
2022/05/21 07:12:31;;;;;;;6.45;3.72;;;;;;;18.55;62.71;100731.75;5031993;28;20452;-74
2022/05/21 07:14:56;;;;;;;7.93;3.03;;;;;;;18.74;62.74;100738.88;4974381;28;20030;-76
2022/05/21 07:17:22;;;;;;;6.32;4.20;;;;;;;18.63;63.28;100719.63;4991150;28;20043;-75
2022/05/21 07:19:47;;;;;;;6.20;3.22;;;;;;;18.76;64.41;100736.28;4990185;28;20169;-76
2022/05/21 07:22:13;;;;;;;7.00;4.25;;;;;;;18.77;64.28;100696.19;4990573;28;20420;-76
2022/05/21 07:24:40;;;;;;;6.88;4.10;;;;;;;19.04;62.92;100710.31;4976976;28;20042;-76
2022/05/21 07:27:05;;;;;;;6.03;3.20;;;;;;;19.13;61.99;100720.88;4987903;28;20042;-76
2022/05/21 07:29:31;;;;;;;6.28;4.05;;;;;;;19.39;61.73;100734.09;4990273;28;20045;-76
2022/05/21 07:31:57;;;;;;;7.22;3.42;;;;;;;19.51;62.20;100727.16;4990756;28;20512;-75
2022/05/21 07:34:23;;;;;;;4.43;3.30;;;;;;;19.59;61.75;100712.34;4990556;28;20070;-76
2022/05/21 07:36:48;;;;;;;6.65;3.53;;;;;;;19.54;62.41;100695.75;4990305;28;20065;-75
2022/05/21 07:39:14;;;;;;;7.88;3.63;;;;;;;19.64;61.82;100712.34;4990518;28;20041;-76
2022/05/21 07:41:40;;;;;;;5.18;2.80;;;;;;;19.81;60.92;100694.97;4990435;28;20031;-76
2022/05/21 07:44:21;;;;;;;6.00;3.15;;;;;;;20.14;59.21;100719.50;4990360;28;20133;-76
2022/05/21 07:46:46;;;;;;;7.75;3.13;;;;;;;20.14;60.26;100695.91;5008456;28;20037;-75
2022/05/21 07:49:12;;;;;;;6.13;3.20;;;;;;;20.41;58.37;100702.06;5031839;28;20517;-75
2022/05/21 07:51:37;;;;;;;5.05;3.40;;;;;;;20.50;58.48;100686.31;5031793;28;20095;-76
2022/05/21 07:54:08;;;;;;;6.57;3.45;;;;;;;20.63;57.04;100692.41;5031801;28;20022;-76
2022/05/21 07:56:33;;;;;;;7.07;3.40;;;;;;;20.65;58.65;100676.69;5032257;28;20025;-75
2022/05/21 07:58:59;;;;;;;6.18;3.05;;;;;;;20.56;57.57;100642.59;5031785;28;20475;-76
2022/05/21 08:01:24;;;;;;;6.40;3.28;;;;;;;20.81;58.49;100664.44;5031889;28;20375;-75
2022/05/21 08:03:50;;;;;;;5.85;3.25;;;;;;;21.00;57.50;100654.78;5031310;28;20737;-76
2022/05/21 08:06:16;;;;;;;6.13;3.05;;;;;;;20.90;57.72;100639.91;5031678;28;20029;-75
2022/05/21 08:08:42;;;;;;;5.32;3.30;;;;;;;21.22;56.48;100663.47;5031482;28;20108;-76
2022/05/21 08:11:07;;;;;;;3.58;2.75;;;;;;;21.37;54.57;100665.16;5031696;28;20104;-75
2022/05/21 08:13:34;;;;;;;5.47;2.97;;;;;;;21.40;53.92;100643.25;5032101;28;20452;-75
2022/05/21 08:16:00;;;;;;;6.20;3.60;;;;;;;21.55;52.74;100647.53;5031057;28;20502;-76
2022/05/21 08:18:27;;;;;;;5.90;3.00;;;;;;;21.60;53.51;100630.88;5030655;28;20009;-75
2022/05/21 08:20:54;;;;;;;4.03;2.95;;;;;;;21.77;51.88;100632.53;5030462;28;20026;-75
2022/05/21 08:28:49;;;;;;;5.40;2.63;;;;;;;22.26;49.94;100628.66;5015468;28;20041;-76
2022/05/21 08:31:15;;;;;;;3.55;2.40;;;;;;;22.18;51.02;100612.97;5030489;28;20137;-76
2022/05/21 08:33:41;;;;;;;2.45;2.10;;;;;;;22.36;46.82;100613.69;5030386;28;20100;-76
2022/05/21 08:36:06;;;;;;;4.05;1.92;;;;;;;22.28;49.00;100588.31;5026855;28;20033;-76
2022/05/21 08:38:32;;;;;;;3.47;1.63;;;;;;;22.65;47.66;100615.16;5029711;28;20022;-75
2022/05/21 08:41:03;;;;;;;2.60;1.70;;;;;;;22.67;46.05;100616.00;5030058;28;20466;-75
2022/05/21 08:43:58;;;;;;;4.38;2.08;;;;;;;22.70;47.55;100611.59;5022242;28;20030;-75
2022/05/21 08:46:45;;;;;;;2.45;1.45;;;;;;;22.82;47.31;100604.44;5021493;28;20373;-75
2022/05/21 08:49:34;;;;;;;2.97;1.63;;;;;;;22.91;47.17;100593.81;5010932;28;20034;-77
2022/05/21 08:52:38;;;;;;;3.05;1.85;;;;;;;23.02;43.82;100601.59;5016974;28;20546;-75
2022/05/21 08:55:08;;;;;;;4.65;1.80;;;;;;;23.09;44.86;100588.31;5028685;28;20049;-74
2022/05/21 08:57:41;;;;;;;6.25;2.28;;;;;;;23.17;45.48;100582.13;4963334;28;20094;-76
2022/05/21 09:00:09;;;;;;;4.45;2.13;;;;;;;23.06;43.75;100556.75;5027683;28;20486;-76
2022/05/21 09:02:36;;;;;;;2.65;1.60;;;;;;;23.35;42.12;100584.50;5030005;28;20029;-75
2022/05/21 09:05:10;;;;;;;3.33;2.03;;;;;;;23.27;47.01;100545.06;5029328;28;20475;-77
2022/05/21 09:08:03;;;;;;;2.47;1.85;;;;;;;23.56;42.25;100574.53;5030262;28;20017;-76
2022/05/21 09:10:47;;;;;;;3.40;1.52;;;;;;;23.63;44.60;100576.19;5029934;28;20032;-74
2022/05/21 09:13:20;;;;;;;4.43;1.85;;;;;;;23.85;44.30;100573.19;5030276;28;20484;-74
2022/05/21 09:18:34;;;;;;;2.70;1.85;;;;;;;23.85;44.25;100563.53;5029817;28;20078;-74
2022/05/21 09:21:09;;;;;;;4.05;2.17;;;;;;;24.07;44.27;100568.47;5029580;28;20040;-75
2022/05/21 09:23:54;;;;;;;4.40;1.80;;;;;;;24.19;43.94;100577.94;5029787;28;20029;-74
2022/05/21 09:26:27;;;;;;;3.17;1.50;;;;;;;24.29;43.98;100574.22;5030397;28;20025;-76
2022/05/21 09:29:18;;;;;;;4.20;1.77;;;;;;;24.22;46.47;100568.19;5030343;28;20053;-74
2022/05/21 09:31:44;;;;;;;2.05;1.42;;;;;;;24.25;46.63;100556.72;5029042;28;20101;-75
2022/05/21 09:34:28;;;;;;;2.10;1.48;;;;;;;24.32;46.14;100553.03;5029853;28;20037;-74
2022/05/21 09:36:55;;;;;;;1.40;1.20;;;;;;;24.54;44.93;100547.38;5031627;28;20029;-74
2022/05/21 09:39:31;;;;;;;2.50;1.60;;;;;;;24.59;45.04;100545.50;5030004;28;20022;-82
2022/05/21 09:45:26;;;;;;;2.42;1.52;;;;;;;24.88;45.18;100536.13;4966908;28;20038;-80
2022/05/21 09:47:53;;;;;;;2.28;1.40;;;;;;;24.78;44.08;100534.59;4968103;28;20030;-78
2022/05/21 09:50:24;;;;;;;3.65;1.60;;;;;;;24.97;43.72;100532.44;4968125;28;20109;-80
2022/05/21 09:52:51;;;;;;;2.47;1.65;;;;;;;25.22;42.27;100537.16;4968152;28;20520;-79
2022/05/21 09:55:24;;;;;;;3.33;1.58;;;;;;;25.32;42.22;100525.47;4968504;28;20460;-77
2022/05/21 09:57:50;;;;;;;2.70;1.67;;;;;;;25.15;41.95;100492.41;4966368;28;20074;-78
2022/05/21 10:00:28;;;;;;;3.30;1.85;;;;;;;25.38;42.82;100492.78;4968459;28;20049;-78
2022/05/21 10:03:00;;;;;;;3.13;1.70;;;;;;;25.56;42.56;100499.38;4968055;28;20102;-78
2022/05/21 10:05:46;;;;;;;4.63;1.77;;;;;;;25.71;42.98;100488.44;4967686;28;20042;-79
2022/05/21 10:11:38;;;;;;;2.83;1.98;;;;;;;26.12;40.57;100497.09;4967819;28;20116;-78
2022/05/21 10:14:08;;;;;;;3.88;1.85;;;;;;;26.22;42.38;100502.13;4964607;28;20050;-78
2022/05/21 10:16:36;;;;;;;8.57;2.00;;;;;;;26.40;40.46;100498.09;4966120;28;20130;-78
2022/05/21 10:19:04;;;;;;;3.15;1.40;;;;;;;26.59;37.87;100491.38;4951246;28;20066;-79
2022/05/21 10:22:05;;;;;;;6.03;1.60;;;;;;;26.59;39.07;100488.72;5002680;28;20108;-79
2022/05/21 10:24:48;;;;;;;2.00;1.40;;;;;;;26.80;38.88;100494.31;4967705;28;20046;-78
2022/05/21 10:27:24;;;;;;;3.70;1.48;;;;;;;26.89;39.77;100459.59;4967517;28;20548;-80
2022/05/21 10:29:50;;;;;;;1.75;1.30;;;;;;;26.93;38.00;100492.13;4945971;28;20130;-82
2022/05/21 10:32:46;;;;;;;6.20;1.63;;;;;;;26.91;39.43;100471.00;4951232;28;20046;-79
2022/05/21 10:35:42;;;;;;;3.65;1.80;;;;;;;27.18;40.43;100481.66;4951206;28;20419;-78
2022/05/21 10:38:21;;;;;;;2.85;1.70;;;;;;;27.40;38.44;100481.88;4967296;28;20027;-80
2022/05/21 10:41:19;;;;;;;4.68;1.55;;;;;;;27.66;39.27;100484.56;4967782;28;20822;-79
2022/05/21 10:44:06;;;;;;;2.80;1.58;;;;;;;27.73;39.67;100467.50;4927783;29;20048;-82
2022/05/21 10:46:52;;;;;;;1.42;1.25;;;;;;;27.68;38.57;100472.13;4931480;29;20030;-81
2022/05/21 10:50:04;;;;;;;2.85;1.52;;;;;;;27.64;39.98;100466.03;4932688;29;20047;-81
2022/05/21 10:56:06;;;;;;;2.55;1.50;;;;;;;27.62;37.29;100465.22;5013844;22;20142;-79
2022/05/21 10:58:44;;;;;;;3.78;1.50;;;;;;;27.77;37.02;100455.88;5014250;28;20026;-74
2022/05/21 11:01:12;;;;;;;3.65;1.70;;;;;;;27.98;38.83;100454.25;5007172;28;20140;-76
2022/05/21 11:04:01;;;;;;;3.15;1.30;;;;;;;28.16;35.87;100458.03;5000614;28;20034;-78
2022/05/21 11:06:48;;;;;;;4.38;1.60;;;;;;;28.36;35.09;100449.34;4993942;28;20038;-78
2022/05/21 11:09:35;;;;;;;3.70;1.40;;;;;;;28.43;35.85;100447.31;4993615;28;20066;-79
2022/05/21 11:12:08;;;;;;;4.90;1.60;;;;;;;28.20;39.12;100414.56;4994022;28;20066;-79
2022/05/21 11:14:34;;;;;;;1.65;1.33;;;;;;;28.30;38.70;100438.97;4993873;28;20503;-77
2022/05/21 11:17:21;;;;;;;4.75;1.55;;;;;;;28.31;37.76;100439.81;4994008;28;20038;-78
2022/05/21 11:20:11;;;;;;;1.80;1.38;;;;;;;28.57;35.03;100439.69;4993608;28;20035;-79
2022/05/21 11:22:40;;;;;;;4.18;1.58;;;;;;;28.65;37.72;100439.41;4993744;28;20034;-76
2022/05/21 11:25:15;;;;;;;2.60;1.45;;;;;;;28.73;37.06;100429.34;4993497;28;20037;-76
2022/05/21 11:27:59;;;;;;;3.92;1.80;;;;;;;28.66;36.00;100419.88;4993562;28;20117;-79
2022/05/21 11:30:25;;;;;;;5.25;1.50;;;;;;;28.77;31.90;100410.66;4993868;28;20042;-77
2022/05/21 11:38:45;;;;;;;2.33;1.30;;;;;;;29.40;30.43;100393.91;4952407;29;20038;-77
2022/05/21 11:41:28;;;;;;;2.65;1.40;;;;;;;29.57;30.05;100403.81;4952206;29;20393;-77
2022/05/21 11:47:20;;;;;;;2.67;1.35;;;;;;;29.10;31.71;100396.91;4952109;29;20105;-78
2022/05/21 11:49:50;;;;;;;3.20;1.58;;;;;;;29.12;30.85;100395.91;4952126;28;20027;-77
2022/05/21 11:52:27;;;;;;;3.60;1.33;;;;;;;29.38;29.23;100375.38;4951899;28;20039;-78
2022/05/21 11:55:11;;;;;;;3.65;1.27;;;;;;;29.64;29.46;100378.69;4950451;28;20130;-79
2022/05/21 11:57:41;;;;;;;2.97;1.42;;;;;;;29.36;30.27;100346.19;4955778;28;20058;-78
2022/05/21 12:00:25;;;;;;;1.85;1.20;;;;;;;29.48;28.84;100366.03;4956452;28;20477;-78
2022/05/21 12:02:53;;;;;;;4.25;1.30;;;;;;;29.72;28.29;100368.59;4954091;28;20028;-75
2022/05/21 12:05:38;;;;;;;4.03;1.30;;;;;;;29.78;26.87;100367.44;4991948;28;20401;-77
2022/05/21 12:08:23;;;;;;;2.15;1.30;;;;;;;29.94;29.09;100367.63;4997541;28;20029;-75
2022/05/21 12:11:04;;;;;;;5.20;1.25;;;;;;;29.91;27.80;100352.66;5010942;28;20121;-78
2022/05/21 12:13:53;;;;;;;2.17;1.20;;;;;;;30.11;31.13;100353.56;5010611;28;20022;-78
2022/05/21 12:16:21;;;;;;;8.30;1.88;;;;;;;30.24;28.80;100346.69;5011287;28;20030;-77
2022/05/21 12:18:57;;;;;;;2.53;1.60;;;;;;;30.25;32.17;100350.25;5011371;28;20021;-76
2022/05/21 12:21:29;;;;;;;2.42;1.30;;;;;;;29.97;33.06;100315.13;5011036;28;20036;-77
2022/05/21 12:23:55;;;;;;;4.53;1.42;;;;;;;29.85;30.60;100291.72;5009109;28;20072;-77
2022/05/21 12:26:26;;;;;;;2.88;1.25;;;;;;;30.01;27.40;100345.13;5004377;28;20030;-77